createdAt,value
2017-11-09T00:01:45.886Z,51.13
2017-11-09T00:04:18.906Z,58.30
2017-11-09T00:06:47.102Z,59.93
2017-11-09T00:09:15.318Z,61.03
2017-11-09T00:11:42.774Z,56.30
2017-11-09T00:14:10.229Z,56.63
2017-11-09T00:16:37.661Z,56.23
2017-11-09T00:19:05.102Z,57.80
2017-11-09T00:21:33.306Z,55.77
2017-11-09T00:24:00.780Z,55.13
2017-11-09T00:26:28.408Z,54.07
2017-11-09T00:28:55.901Z,48.60
2017-11-09T00:31:23.342Z,54.97
2017-11-09T00:33:50.814Z,53.07
2017-11-09T00:36:18.249Z,55.83
2017-11-09T00:38:45.725Z,53.50
2017-11-09T00:41:13.172Z,54.80
2017-11-09T00:43:40.632Z,52.70
2017-11-09T00:46:08.106Z,54.23
2017-11-09T00:48:35.549Z,52.90
2017-11-09T00:51:03.005Z,55.70
2017-11-09T00:53:30.441Z,51.47
2017-11-09T00:55:57.955Z,53.77
2017-11-09T00:58:25.390Z,52.93
2017-11-09T01:00:52.830Z,48.53
2017-11-09T01:03:20.297Z,52.10
2017-11-09T01:05:47.727Z,51.67
2017-11-09T01:08:15.154Z,53.03
2017-11-09T01:10:43.362Z,54.07
2017-11-09T01:13:10.802Z,54.03
2017-11-09T01:15:39.022Z,55.13
2017-11-09T01:18:06.469Z,52.80
2017-11-09T01:20:33.928Z,56.43
2017-11-09T01:23:01.390Z,53.27
2017-11-09T01:25:28.842Z,50.93
2017-11-09T01:27:56.518Z,51.27
2017-11-09T01:30:23.970Z,55.97
2017-11-09T01:32:51.411Z,54.00
2017-11-09T01:35:18.886Z,54.97
2017-11-09T01:37:46.326Z,56.33
2017-11-09T01:40:13.771Z,54.70
2017-11-09T01:42:41.202Z,55.90
2017-11-09T01:45:09.417Z,61.30
2017-11-09T01:47:36.854Z,60.37
2017-11-09T01:50:04.282Z,60.00
2017-11-09T01:52:32.511Z,60.03
2017-11-09T01:54:59.956Z,60.33
2017-11-09T01:57:27.387Z,57.87
2017-11-09T01:59:55.598Z,60.63
2017-11-09T02:02:23.046Z,56.50
2017-11-09T02:04:50.480Z,55.43
2017-11-09T02:07:18.678Z,53.33
2017-11-09T02:09:46.120Z,52.67
2017-11-09T02:12:13.555Z,55.97
2017-11-09T02:14:41.780Z,54.17
2017-11-09T02:17:09.238Z,51.57
2017-11-09T02:19:36.693Z,50.67
2017-11-09T02:22:04.119Z,51.63
2017-11-09T02:24:31.576Z,49.00
2017-11-09T02:26:59.008Z,49.87
2017-11-09T02:29:27.234Z,51.30
2017-11-09T02:31:54.679Z,50.50
2017-11-09T02:34:22.156Z,51.90
2017-11-09T02:36:49.606Z,49.27
2017-11-09T02:39:17.083Z,52.97
2017-11-09T02:41:44.618Z,51.27
2017-11-09T02:44:12.078Z,50.40
2017-11-09T02:46:39.539Z,50.93
2017-11-09T02:49:06.973Z,51.60
2017-11-09T02:51:34.409Z,50.17
2017-11-09T02:54:03.650Z,51.33
2017-11-09T02:56:31.077Z,49.47
2017-11-09T02:58:58.501Z,51.27
2017-11-09T03:01:26.711Z,51.17
2017-11-09T03:03:54.146Z,49.33
2017-11-09T03:06:22.378Z,48.77
2017-11-09T03:08:49.926Z,51.27
2017-11-09T03:11:17.359Z,47.67
2017-11-09T03:13:44.786Z,51.80
2017-11-09T03:16:12.224Z,48.27
2017-11-09T03:18:39.649Z,51.17
2017-11-09T03:21:07.118Z,50.77
2017-11-09T03:23:34.566Z,51.13
2017-11-09T03:26:01.998Z,52.00
2017-11-09T03:28:29.436Z,50.30
2017-11-09T03:30:57.667Z,47.63
2017-11-09T03:33:25.208Z,48.03
2017-11-09T03:35:52.675Z,49.30
2017-11-09T03:38:20.120Z,49.70
2017-11-09T03:40:47.550Z,48.90
2017-11-09T03:43:15.747Z,49.40
2017-11-09T03:45:43.181Z,48.00
2017-11-09T03:48:11.383Z,49.47
2017-11-09T03:50:38.808Z,46.47
2017-11-09T03:53:07.135Z,49.13
2017-11-09T03:55:34.562Z,49.17
2017-11-09T03:58:01.990Z,49.53
2017-11-09T04:00:30.196Z,47.37
2017-11-09T04:02:57.720Z,48.30
2017-11-09T04:05:25.909Z,48.57
2017-11-09T04:07:54.119Z,47.17
2017-11-09T04:10:21.546Z,46.07
2017-11-09T04:12:49.034Z,45.20
2017-11-09T04:15:16.491Z,47.00
2017-11-09T04:17:43.946Z,45.00
2017-11-09T04:20:11.382Z,46.50
2017-11-09T04:22:38.822Z,44.07
2017-11-09T04:25:07.054Z,47.07
2017-11-09T04:27:34.466Z,45.20
2017-11-09T04:30:02.794Z,46.47
2017-11-09T04:32:30.236Z,46.57
2017-11-09T04:34:57.709Z,44.83
2017-11-09T04:37:25.153Z,46.17
2017-11-09T04:39:52.606Z,43.53
2017-11-09T04:42:20.014Z,41.87
2017-11-09T04:44:48.222Z,43.23
2017-11-09T04:47:15.650Z,43.90
2017-11-09T04:49:43.844Z,43.47
2017-11-09T04:52:11.342Z,44.07
2017-11-09T04:54:38.780Z,44.27
2017-11-09T04:57:06.206Z,43.07
2017-11-09T04:59:34.431Z,45.10
2017-11-09T05:02:01.870Z,43.53
2017-11-09T05:04:29.289Z,41.80
2017-11-09T05:06:57.546Z,44.33
2017-11-09T05:09:25.066Z,44.87
2017-11-09T05:11:52.516Z,42.70
2017-11-09T05:14:19.936Z,43.63
2017-11-09T05:16:48.154Z,44.27
2017-11-09T05:19:15.635Z,42.27
2017-11-09T05:21:43.072Z,44.00
2017-11-09T05:24:10.495Z,44.80
2017-11-09T05:26:37.982Z,43.17
2017-11-09T05:29:05.433Z,44.17
2017-11-09T05:31:32.861Z,44.27
2017-11-09T05:34:01.050Z,43.87
2017-11-09T05:36:28.485Z,43.33
2017-11-09T05:38:56.702Z,42.20
2017-11-09T05:41:24.158Z,46.03
2017-11-09T05:43:51.617Z,42.30
2017-11-09T05:46:19.078Z,43.40
2017-11-09T05:48:46.526Z,44.23
2017-11-09T05:51:13.990Z,45.00
2017-11-09T05:53:41.446Z,46.23
2017-11-09T05:56:08.881Z,45.23
2017-11-09T05:58:36.334Z,44.93
2017-11-09T06:01:03.811Z,42.23
2017-11-09T06:03:31.274Z,42.17
2017-11-09T06:05:58.730Z,43.40
2017-11-09T06:08:26.170Z,45.87
2017-11-09T06:10:53.598Z,44.23
2017-11-09T06:13:21.824Z,46.67
2017-11-09T06:15:49.261Z,46.60
2017-11-09T06:18:16.743Z,44.60
2017-11-09T06:20:44.183Z,46.60
2017-11-09T06:23:11.605Z,43.90
2017-11-09T06:25:39.807Z,44.13
2017-11-09T06:28:07.288Z,43.00
2017-11-09T06:30:34.719Z,45.70
2017-11-09T06:33:02.154Z,46.83
2017-11-09T06:35:30.470Z,46.57
2017-11-09T06:37:57.954Z,43.17
2017-11-09T06:40:25.490Z,43.33
2017-11-09T06:42:52.954Z,45.33
2017-11-09T06:45:20.378Z,48.40
2017-11-09T06:47:47.805Z,47.87
2017-11-09T06:50:16.010Z,44.03
2017-11-09T06:52:43.494Z,46.47
2017-11-09T06:55:10.950Z,44.67
2017-11-09T06:57:38.391Z,45.47
2017-11-09T07:00:05.824Z,47.20
2017-11-09T07:02:34.021Z,46.80
2017-11-09T07:05:01.456Z,43.27
2017-11-09T07:07:29.654Z,46.93
2017-11-09T07:09:57.232Z,47.60
2017-11-09T07:12:24.682Z,45.77
2017-11-09T07:14:52.151Z,46.73
2017-11-09T07:17:19.599Z,48.20
2017-11-09T07:19:47.057Z,45.03
2017-11-09T07:22:14.499Z,46.43
2017-11-09T07:24:41.930Z,47.00
2017-11-09T07:27:10.162Z,43.83
2017-11-09T07:29:37.702Z,48.00
2017-11-09T07:32:05.137Z,47.43
2017-11-09T07:34:32.587Z,48.57
2017-11-09T07:37:00.074Z,48.77
2017-11-09T07:39:27.530Z,49.97
2017-11-09T07:41:54.989Z,45.70
2017-11-09T07:44:22.428Z,48.30
2017-11-09T07:46:49.863Z,48.93
2017-11-09T07:49:18.070Z,46.73
2017-11-09T07:51:45.509Z,47.50
2017-11-09T07:54:12.931Z,46.17
2017-11-09T07:56:41.980Z,46.70
2017-11-09T07:59:09.442Z,49.37
2017-11-09T08:01:36.876Z,46.27
2017-11-09T08:04:04.318Z,49.03
2017-11-09T08:06:31.794Z,46.67
2017-11-09T08:08:59.254Z,45.57
2017-11-09T08:11:26.714Z,45.33
2017-11-09T08:13:54.170Z,47.33
2017-11-09T08:16:21.625Z,49.80
2017-11-09T08:18:49.067Z,48.50
2017-11-09T08:21:16.542Z,46.93
2017-11-09T08:23:43.997Z,47.07
2017-11-09T08:26:14.538Z,48.87
2017-11-09T08:28:44.266Z,47.30
2017-11-09T08:31:13.570Z,47.47
2017-11-09T08:33:41.965Z,45.37
2017-11-09T08:36:09.395Z,46.13
2017-11-09T08:38:36.823Z,47.63
2017-11-09T08:41:04.262Z,47.40
2017-11-09T08:43:31.751Z,49.73
2017-11-09T08:45:59.177Z,48.17
2017-11-09T08:48:26.659Z,49.00
2017-11-09T08:50:54.121Z,49.73
2017-11-09T08:53:21.550Z,48.33
2017-11-09T08:55:49.002Z,48.60
2017-11-09T08:58:16.483Z,47.40
2017-11-09T09:00:43.942Z,48.00
2017-11-09T09:03:11.398Z,48.23
2017-11-09T09:05:38.829Z,48.50
2017-11-09T09:08:06.267Z,49.03
2017-11-09T09:10:34.594Z,48.00
2017-11-09T09:13:02.025Z,48.67
2017-11-09T09:15:29.457Z,49.40
2017-11-09T09:17:57.686Z,48.23
2017-11-09T09:20:30.770Z,51.10
2017-11-09T09:22:58.217Z,46.90
2017-11-09T09:28:37.358Z,51.20
2017-11-09T09:31:04.794Z,49.67
2017-11-09T09:33:36.733Z,51.67
2017-11-09T09:36:08.090Z,50.03
2017-11-09T09:38:52.642Z,49.63
2017-11-09T09:41:20.095Z,50.10
2017-11-09T09:43:47.522Z,49.53
2017-11-09T09:46:14.950Z,49.63
2017-11-09T09:48:42.390Z,50.20
2017-11-09T09:51:10.586Z,48.63
2017-11-09T09:53:38.021Z,47.63
2017-11-09T09:56:06.232Z,49.77
2017-11-09T09:58:33.662Z,49.30
2017-11-09T10:01:01.094Z,48.43
2017-11-09T10:03:29.322Z,49.03
2017-11-09T10:05:56.750Z,47.27
2017-11-09T10:08:24.183Z,48.73
2017-11-09T10:10:52.387Z,47.27
2017-11-09T10:13:19.819Z,48.90
2017-11-09T10:15:48.045Z,47.70
2017-11-09T10:18:15.498Z,49.03
2017-11-09T10:20:42.958Z,50.70
2017-11-09T10:23:10.386Z,59.20
2017-11-09T10:25:37.882Z,49.43
2017-11-09T10:28:05.319Z,52.27
2017-11-09T10:30:32.745Z,50.27
2017-11-09T10:33:00.962Z,50.37
2017-11-09T10:35:28.418Z,48.17
2017-11-09T10:37:55.875Z,49.77
2017-11-09T10:40:23.330Z,51.00
2017-11-09T10:42:50.766Z,50.97
2017-11-09T10:45:18.245Z,48.50
2017-11-09T10:47:45.694Z,47.50
2017-11-09T10:50:13.164Z,50.40
2017-11-09T10:52:40.592Z,49.33
2017-11-09T10:55:08.031Z,49.43
2017-11-09T10:57:36.230Z,49.50
2017-11-09T11:00:03.663Z,48.63
2017-11-09T11:02:31.882Z,51.87
2017-11-09T11:04:59.314Z,49.53
2017-11-09T11:07:26.774Z,49.07
2017-11-09T11:09:54.219Z,51.07
2017-11-09T11:12:21.711Z,50.50
2017-11-09T11:14:49.134Z,48.23
2017-11-09T11:17:16.574Z,49.33
2017-11-09T11:19:44.787Z,47.40
2017-11-09T11:22:12.218Z,50.03
2017-11-09T11:24:40.534Z,48.07
2017-11-09T11:27:07.987Z,50.10
2017-11-09T11:29:35.447Z,47.87
2017-11-09T11:32:02.891Z,48.70
2017-11-09T11:34:30.352Z,48.67
2017-11-09T11:36:57.784Z,50.60
2017-11-09T11:39:25.226Z,49.03
2017-11-09T11:41:53.487Z,49.73
2017-11-09T11:44:20.922Z,47.77
2017-11-09T11:46:48.478Z,50.77
2017-11-09T11:49:15.929Z,51.23
2017-11-09T11:51:43.350Z,50.30
2017-11-09T11:54:10.807Z,52.13
2017-11-09T11:56:38.249Z,51.60
2017-11-09T11:59:06.446Z,50.70
2017-11-09T12:01:33.892Z,52.40
2017-11-09T12:04:01.384Z,51.63
2017-11-09T12:06:28.815Z,50.57
2017-11-09T12:08:56.306Z,50.60
2017-11-09T12:11:23.758Z,48.27
2017-11-09T12:13:51.187Z,49.13
2017-11-09T12:16:18.656Z,46.67
2017-11-09T12:18:46.091Z,47.00
2017-11-09T12:21:13.583Z,46.63
2017-11-09T12:23:41.028Z,45.93
2017-11-09T12:26:08.506Z,46.43
2017-11-09T12:28:35.930Z,47.17
2017-11-09T12:31:03.413Z,47.47
2017-11-09T12:33:30.842Z,45.13
2017-11-09T12:35:58.325Z,43.77
2017-11-09T12:38:25.771Z,46.23
2017-11-09T12:40:53.237Z,44.30
2017-11-09T12:43:20.701Z,46.10
2017-11-09T12:45:48.148Z,43.67
2017-11-09T12:48:16.362Z,42.87
2017-11-09T12:50:43.819Z,43.73
2017-11-09T12:53:11.379Z,44.23
2017-11-09T12:55:38.816Z,44.93
2017-11-09T12:58:08.055Z,41.57
2017-11-09T13:00:35.573Z,43.77
2017-11-09T13:03:02.997Z,41.20
2017-11-09T13:05:31.226Z,39.80
2017-11-09T13:07:58.646Z,39.50
2017-11-09T13:10:26.850Z,36.27
2017-11-09T13:12:54.277Z,34.03
2017-11-09T13:15:22.487Z,35.03
2017-11-09T13:17:52.921Z,31.53
2017-11-09T13:20:20.351Z,29.97
2017-11-09T13:22:47.798Z,27.73
2017-11-09T13:25:15.234Z,28.50
2017-11-09T13:27:43.462Z,28.03
2017-11-09T13:30:10.915Z,27.10
2017-11-09T13:32:44.858Z,26.00
2017-11-09T13:35:12.305Z,25.57
2017-11-09T13:37:39.841Z,24.70
2017-11-09T13:40:07.274Z,23.83
2017-11-09T13:42:34.806Z,23.67
2017-11-09T13:45:02.319Z,24.50
2017-11-09T13:47:29.750Z,24.87
2017-11-09T13:49:57.232Z,23.53
2017-11-09T13:52:24.706Z,22.70
2017-11-09T13:54:55.100Z,21.77
2017-11-09T13:57:22.548Z,21.43
2017-11-09T13:59:50.028Z,22.43
2017-11-09T14:02:17.462Z,20.70
2017-11-09T14:04:44.939Z,19.30
2017-11-09T14:07:12.358Z,18.67
2017-11-09T14:09:40.553Z,18.37
2017-11-09T14:12:08.033Z,17.63
2017-11-09T14:14:35.466Z,18.93
2017-11-09T14:17:02.902Z,17.07
2017-11-09T14:19:31.132Z,16.47
2017-11-09T14:21:58.569Z,15.63
2017-11-09T14:24:26.040Z,15.27
2017-11-09T14:26:53.484Z,14.43
2017-11-09T14:29:20.950Z,13.93
2017-11-09T14:31:48.399Z,13.10
2017-11-09T14:34:15.830Z,11.67
2017-11-09T14:36:43.258Z,11.27
2017-11-09T14:39:10.686Z,10.43
2017-11-09T14:41:38.134Z,10.63
2017-11-09T14:44:05.566Z,8.40
2017-11-09T14:46:34.993Z,7.97
2017-11-09T14:49:02.439Z,7.57
2017-11-09T14:51:29.897Z,7.00
2017-11-09T14:53:57.364Z,6.30
2017-11-09T14:56:24.818Z,6.40
2017-11-09T14:58:52.246Z,5.77
2017-11-09T15:01:19.686Z,5.87
2017-11-09T15:03:47.912Z,6.83
2017-11-09T15:06:15.460Z,5.53
2017-11-09T15:08:42.882Z,5.77
2017-11-09T15:11:11.095Z,5.80
2017-11-09T15:13:38.549Z,6.73
2017-11-09T15:16:06.725Z,6.07
2017-11-09T15:18:34.176Z,5.13
2017-11-09T15:21:01.671Z,4.83
2017-11-09T15:23:29.094Z,5.00
2017-11-09T15:25:56.557Z,5.67
2017-11-09T15:28:23.967Z,4.90
2017-11-09T15:30:51.389Z,4.57
2017-11-09T15:33:18.825Z,4.80
2017-11-09T15:35:51.978Z,4.93
2017-11-09T15:38:19.402Z,3.53
2017-11-09T15:40:46.934Z,3.40
2017-11-09T15:43:14.485Z,3.20
2017-11-09T15:45:41.907Z,2.57
2017-11-09T15:48:10.160Z,3.17
2017-11-09T15:50:37.738Z,3.00
2017-11-09T15:53:05.934Z,2.60
2017-11-09T15:55:33.409Z,2.40
2017-11-09T15:58:00.825Z,2.70
2017-11-09T16:00:28.259Z,2.63
2017-11-09T16:02:55.853Z,2.87
2017-11-09T16:05:24.087Z,2.33
2017-11-09T16:07:51.678Z,2.60
2017-11-09T16:10:19.095Z,2.40
2017-11-09T16:12:46.559Z,2.83
2017-11-09T16:15:14.000Z,2.70
2017-11-09T16:17:41.467Z,2.50
2017-11-09T16:20:08.885Z,2.97
2017-11-09T16:22:36.382Z,2.78
2017-11-09T16:25:03.826Z,3.07
2017-11-09T16:27:31.250Z,3.10
2017-11-09T16:29:58.742Z,2.90
2017-11-09T16:32:26.202Z,2.90
2017-11-09T16:34:53.644Z,2.93
2017-11-09T16:37:21.089Z,3.37
2017-11-09T16:39:48.514Z,2.90
2017-11-09T16:42:16.693Z,3.27
2017-11-09T16:44:44.908Z,3.83
2017-11-09T16:47:12.386Z,4.27
2017-11-09T16:49:39.828Z,5.93
2017-11-09T16:52:07.295Z,4.87
2017-11-09T16:54:34.748Z,4.33
2017-11-09T16:57:05.106Z,4.77
2017-11-09T16:59:32.625Z,5.00
2017-11-09T17:02:00.059Z,4.60
2017-11-09T17:04:27.552Z,5.20
2017-11-09T17:06:54.993Z,4.67
2017-11-09T17:09:22.405Z,4.50
2017-11-09T17:11:50.647Z,3.67
2017-11-09T17:14:18.185Z,4.53
2017-11-09T17:16:45.659Z,4.53
2017-11-09T17:19:13.112Z,4.77
2017-11-09T17:21:40.573Z,4.63
2017-11-09T17:24:08.023Z,4.70
2017-11-09T17:26:36.210Z,4.20
2017-11-09T17:29:03.694Z,4.90
2017-11-09T17:31:31.118Z,3.93
2017-11-09T17:33:59.321Z,4.83
2017-11-09T17:36:26.764Z,4.73
2017-11-09T17:38:54.242Z,4.50
2017-11-09T17:41:21.666Z,4.40
2017-11-09T17:43:49.870Z,4.50
2017-11-09T17:46:17.293Z,3.97
2017-11-09T17:48:45.497Z,4.30
2017-11-09T17:51:13.899Z,5.43
2017-11-09T17:53:41.321Z,4.67
2017-11-09T17:56:08.803Z,4.87
2017-11-09T17:58:38.109Z,5.63
2017-11-09T18:01:05.561Z,5.50
2017-11-09T18:03:34.981Z,5.90
2017-11-09T18:06:02.518Z,5.37
2017-11-09T18:08:29.958Z,5.70
2017-11-09T18:10:57.431Z,5.40
2017-11-09T18:13:24.902Z,5.17
2017-11-09T18:15:52.325Z,6.33
2017-11-09T18:18:19.802Z,5.97
2017-11-09T18:20:47.285Z,6.20
2017-11-09T18:23:15.511Z,6.97
2017-11-09T18:25:42.994Z,6.37
2017-11-09T18:28:10.453Z,6.90
2017-11-09T18:30:37.921Z,7.23
2017-11-09T18:33:05.362Z,7.17
2017-11-09T18:35:32.815Z,8.33
2017-11-09T18:38:00.262Z,8.00
2017-11-09T18:40:28.458Z,8.67
2017-11-09T18:42:55.888Z,9.20
2017-11-09T18:45:23.314Z,10.43
2017-11-09T18:47:51.512Z,9.40
2017-11-09T18:50:19.714Z,11.57
2017-11-09T18:52:47.214Z,11.83
2017-11-09T18:55:15.470Z,13.80
2017-11-09T18:57:42.914Z,13.97
2017-11-09T19:00:10.362Z,14.00
2017-11-09T19:02:37.794Z,14.70
2017-11-09T19:05:05.236Z,15.70
2017-11-09T19:07:33.430Z,15.97
2017-11-09T19:10:00.861Z,15.90
2017-11-09T19:12:29.083Z,16.60
2017-11-09T19:14:56.518Z,18.47
2017-11-09T19:17:23.944Z,19.63
2017-11-09T19:19:51.462Z,20.73
2017-11-09T19:22:18.891Z,21.67
2017-11-09T19:24:46.314Z,21.27
2017-11-09T19:27:13.767Z,22.73
2017-11-09T19:29:42.710Z,22.67
2017-11-09T19:32:10.201Z,23.43
2017-11-09T19:34:37.705Z,22.90
2017-11-09T19:37:05.186Z,24.90
2017-11-09T19:39:32.650Z,26.53
2017-11-09T19:42:00.100Z,23.30
2017-11-09T19:44:27.533Z,26.13
2017-11-09T19:46:54.969Z,26.87
2017-11-09T19:49:24.117Z,27.27
2017-11-09T19:51:51.573Z,27.70
2017-11-09T19:54:19.070Z,28.70
2017-11-09T19:56:46.505Z,28.23
2017-11-09T19:59:13.967Z,29.40
2017-11-09T20:01:41.422Z,28.73
2017-11-09T20:04:08.959Z,31.10
2017-11-09T20:06:36.423Z,31.00
2017-11-09T20:09:03.859Z,30.87
2017-11-09T20:11:31.448Z,30.77
2017-11-09T20:13:58.876Z,34.67
2017-11-09T20:16:26.346Z,36.37
2017-11-09T20:18:53.770Z,33.67
2017-11-09T20:21:21.985Z,36.20
2017-11-09T20:23:49.422Z,34.80
2017-11-09T20:26:16.855Z,38.37
2017-11-09T20:28:45.074Z,36.50
2017-11-09T20:31:12.507Z,42.80
2017-11-09T20:33:40.735Z,41.50
2017-11-09T20:36:08.166Z,42.90
2017-11-09T20:38:35.612Z,43.70
2017-11-09T20:41:03.046Z,43.67
2017-11-09T20:43:30.479Z,44.73
2017-11-09T20:45:58.720Z,44.33
2017-11-09T20:48:26.152Z,44.20
2017-11-09T20:50:53.621Z,42.53
2017-11-09T20:53:21.079Z,42.00
2017-11-09T20:55:48.524Z,44.93
2017-11-09T20:58:15.967Z,45.83
2017-11-09T21:00:43.410Z,45.87
2017-11-09T21:03:11.611Z,41.00
2017-11-09T21:05:39.082Z,46.53
2017-11-09T21:08:06.530Z,44.47
2017-11-09T21:10:34.002Z,48.47
2017-11-09T21:13:01.458Z,48.37
2017-11-09T21:15:28.908Z,48.37
2017-11-09T21:17:56.377Z,49.90
2017-11-09T21:20:23.823Z,53.77
2017-11-09T21:22:51.253Z,50.53
2017-11-09T21:25:18.706Z,52.50
2017-11-09T21:27:46.136Z,49.00
2017-11-09T21:30:13.574Z,43.97
2017-11-09T21:32:41.882Z,47.10
2017-11-09T21:35:09.312Z,43.63
2017-11-09T21:37:36.756Z,43.17
2017-11-09T21:40:04.957Z,47.60
2017-11-09T21:42:32.390Z,49.00
2017-11-09T21:45:00.600Z,49.90
2017-11-09T21:47:28.109Z,49.20
2017-11-09T21:49:56.311Z,49.03
2017-11-09T21:52:23.739Z,49.87
2017-11-09T21:54:51.954Z,51.30
2017-11-09T21:57:19.381Z,56.47
2017-11-09T21:59:47.590Z,57.10
2017-11-09T22:02:15.042Z,61.73
2017-11-09T22:04:42.507Z,57.80
2017-11-09T22:07:09.973Z,58.03
2017-11-09T22:09:37.414Z,63.57
2017-11-09T22:12:04.889Z,65.63
2017-11-09T22:14:32.342Z,60.00
2017-11-09T22:16:59.801Z,62.10
2017-11-09T22:19:27.230Z,65.40
2017-11-09T22:21:54.665Z,66.50
2017-11-09T22:24:22.889Z,73.23
2017-11-09T22:26:50.347Z,78.03
2017-11-09T22:29:17.797Z,71.07
2017-11-09T22:31:45.354Z,100.70
2017-11-09T22:34:12.782Z,80.20
2017-11-09T22:36:40.980Z,73.20
2017-11-09T22:39:08.422Z,72.73
2017-11-09T22:41:35.854Z,77.93
2017-11-09T22:44:04.053Z,74.10
2017-11-09T22:46:31.533Z,77.80
2017-11-09T22:48:59.307Z,75.20
2017-11-09T22:51:26.755Z,84.47
2017-11-09T22:53:55.090Z,84.33
2017-11-09T22:56:22.544Z,92.47
2017-11-09T22:58:49.975Z,88.30
2017-11-09T23:01:17.455Z,84.33
2017-11-09T23:03:44.898Z,92.30
2017-11-09T23:06:12.356Z,92.97
2017-11-09T23:08:39.812Z,88.37
2017-11-09T23:11:07.242Z,88.70
2017-11-09T23:13:34.681Z,98.53
2017-11-09T23:16:02.881Z,93.67
2017-11-09T23:18:30.355Z,95.67
2017-11-09T23:20:57.790Z,94.33
2017-11-09T23:23:25.238Z,89.80
2017-11-09T23:25:52.670Z,97.43
2017-11-09T23:28:20.102Z,86.57
2017-11-09T23:30:47.545Z,76.80
2017-11-09T23:33:15.002Z,74.60
2017-11-09T23:35:42.430Z,64.47
2017-11-09T23:38:09.877Z,66.57
2017-11-09T23:40:37.366Z,67.83
2017-11-09T23:43:04.801Z,67.67
2017-11-09T23:45:32.285Z,64.87
2017-11-09T23:47:59.718Z,68.17
2017-11-09T23:50:27.198Z,70.63
2017-11-09T23:52:54.646Z,76.33
2017-11-09T23:55:22.086Z,72.97
2017-11-09T23:57:49.514Z,75.07
